sensor_id;sensor_type;location;lat;lon;timestamp;P1;durP1;ratioP1;P2;durP2;ratioP2
20296;SDS011;10307;40.100;18.336;2023-02-01T00:00:22;4.32;;;1.30;;
20296;SDS011;10307;40.100;18.336;2023-02-01T00:02:48;4.45;;;1.67;;
20296;SDS011;10307;40.100;18.336;2023-02-01T00:05:15;4.70;;;1.38;;
20296;SDS011;10307;40.100;18.336;2023-02-01T00:07:41;4.32;;;1.58;;
20296;SDS011;10307;40.100;18.336;2023-02-01T00:10:07;3.50;;;1.55;;
20296;SDS011;10307;40.100;18.336;2023-02-01T00:12:34;4.50;;;1.27;;
20296;SDS011;10307;40.100;18.336;2023-02-01T00:15:00;4.25;;;1.25;;
20296;SDS011;10307;40.100;18.336;2023-02-01T00:17:26;7.00;;;1.33;;
20296;SDS011;10307;40.100;18.336;2023-02-01T00:19:53;3.35;;;1.63;;
20296;SDS011;10307;40.100;18.336;2023-02-01T00:22:19;3.75;;;1.20;;
20296;SDS011;10307;40.100;18.336;2023-02-01T00:24:45;2.35;;;0.82;;
20296;SDS011;10307;40.100;18.336;2023-02-01T00:27:11;3.70;;;1.00;;
20296;SDS011;10307;40.100;18.336;2023-02-01T00:29:43;5.68;;;0.98;;
20296;SDS011;10307;40.100;18.336;2023-02-01T00:32:10;2.83;;;1.00;;
20296;SDS011;10307;40.100;18.336;2023-02-01T00:34:36;5.63;;;1.20;;
20296;SDS011;10307;40.100;18.336;2023-02-01T00:37:03;1.70;;;0.90;;
20296;SDS011;10307;40.100;18.336;2023-02-01T00:39:29;4.10;;;1.20;;
20296;SDS011;10307;40.100;18.336;2023-02-01T00:41:55;3.70;;;1.13;;
20296;SDS011;10307;40.100;18.336;2023-02-01T00:44:22;4.47;;;1.20;;
20296;SDS011;10307;40.100;18.336;2023-02-01T00:46:48;3.75;;;1.05;;
20296;SDS011;10307;40.100;18.336;2023-02-01T00:49:14;1.95;;;0.95;;
20296;SDS011;10307;40.100;18.336;2023-02-01T00:51:40;3.55;;;1.13;;
20296;SDS011;10307;40.100;18.336;2023-02-01T00:54:06;3.38;;;1.00;;
20296;SDS011;10307;40.100;18.336;2023-02-01T00:56:33;3.58;;;1.17;;
20296;SDS011;10307;40.100;18.336;2023-02-01T00:58:59;2.33;;;0.98;;
20296;SDS011;10307;40.100;18.336;2023-02-01T01:01:26;3.58;;;1.02;;
20296;SDS011;10307;40.100;18.336;2023-02-01T01:03:56;2.13;;;0.95;;
20296;SDS011;10307;40.100;18.336;2023-02-01T01:06:27;3.58;;;1.17;;
20296;SDS011;10307;40.100;18.336;2023-02-01T01:08:56;1.02;;;0.68;;
20296;SDS011;10307;40.100;18.336;2023-02-01T01:11:25;6.30;;;0.90;;
20296;SDS011;10307;40.100;18.336;2023-02-01T01:13:54;6.70;;;1.30;;
20296;SDS011;10307;40.100;18.336;2023-02-01T01:16:23;1.88;;;0.90;;
20296;SDS011;10307;40.100;18.336;2023-02-01T01:18:51;3.13;;;1.05;;
20296;SDS011;10307;40.100;18.336;2023-02-01T01:21:19;1.17;;;0.60;;
20296;SDS011;10307;40.100;18.336;2023-02-01T01:23:46;2.92;;;0.82;;
20296;SDS011;10307;40.100;18.336;2023-02-01T01:26:15;3.05;;;0.80;;
20296;SDS011;10307;40.100;18.336;2023-02-01T01:28:49;4.90;;;1.63;;
20296;SDS011;10307;40.100;18.336;2023-02-01T01:31:16;5.07;;;0.88;;
20296;SDS011;10307;40.100;18.336;2023-02-01T01:33:44;3.83;;;0.60;;
20296;SDS011;10307;40.100;18.336;2023-02-01T01:36:13;1.35;;;0.65;;
20296;SDS011;10307;40.100;18.336;2023-02-01T01:38:39;1.23;;;0.57;;
20296;SDS011;10307;40.100;18.336;2023-02-01T01:41:07;1.73;;;0.85;;
20296;SDS011;10307;40.100;18.336;2023-02-01T01:43:48;4.28;;;1.00;;
20296;SDS011;10307;40.100;18.336;2023-02-01T01:46:20;3.93;;;0.70;;
20296;SDS011;10307;40.100;18.336;2023-02-01T01:51:38;2.40;;;0.57;;
20296;SDS011;10307;40.100;18.336;2023-02-01T01:54:12;1.95;;;0.70;;
20296;SDS011;10307;40.100;18.336;2023-02-01T01:56:43;2.53;;;0.50;;
20296;SDS011;10307;40.100;18.336;2023-02-01T01:59:13;1.90;;;0.60;;
20296;SDS011;10307;40.100;18.336;2023-02-01T02:01:40;3.63;;;1.17;;
20296;SDS011;10307;40.100;18.336;2023-02-01T02:04:06;1.63;;;0.88;;
20296;SDS011;10307;40.100;18.336;2023-02-01T02:06:34;3.13;;;1.10;;
20296;SDS011;10307;40.100;18.336;2023-02-01T02:09:11;3.60;;;0.73;;
20296;SDS011;10307;40.100;18.336;2023-02-01T02:11:37;1.25;;;0.63;;
20296;SDS011;10307;40.100;18.336;2023-02-01T02:14:03;2.33;;;1.08;;
20296;SDS011;10307;40.100;18.336;2023-02-01T02:16:37;3.25;;;1.15;;
20296;SDS011;10307;40.100;18.336;2023-02-01T02:22:14;3.22;;;1.05;;
20296;SDS011;10307;40.100;18.336;2023-02-01T02:36:22;5.47;;;1.15;;
20296;SDS011;10307;40.100;18.336;2023-02-01T02:42:02;3.70;;;1.45;;
20296;SDS011;10307;40.100;18.336;2023-02-01T02:50:44;4.55;;;1.30;;
20296;SDS011;10307;40.100;18.336;2023-02-01T02:53:37;3.17;;;1.30;;
20296;SDS011;10307;40.100;18.336;2023-02-01T02:56:38;3.38;;;1.55;;
20296;SDS011;10307;40.100;18.336;2023-02-01T02:59:25;3.35;;;0.98;;
20296;SDS011;10307;40.100;18.336;2023-02-01T03:02:12;1.70;;;0.95;;
20296;SDS011;10307;40.100;18.336;2023-02-01T03:04:59;6.75;;;1.23;;
20296;SDS011;10307;40.100;18.336;2023-02-01T03:13:00;4.20;;;1.50;;
20296;SDS011;10307;40.100;18.336;2023-02-01T03:21:04;1.17;;;0.75;;
20296;SDS011;10307;40.100;18.336;2023-02-01T03:23:35;5.30;;;1.23;;
20296;SDS011;10307;40.100;18.336;2023-02-01T03:26:07;4.35;;;1.13;;
20296;SDS011;10307;40.100;18.336;2023-02-01T03:28:43;5.40;;;1.00;;
20296;SDS011;10307;40.100;18.336;2023-02-01T03:31:17;4.75;;;1.13;;
20296;SDS011;10307;40.100;18.336;2023-02-01T03:33:44;2.60;;;1.15;;
20296;SDS011;10307;40.100;18.336;2023-02-01T03:41:28;3.70;;;1.33;;
20296;SDS011;10307;40.100;18.336;2023-02-01T03:44:19;4.57;;;1.70;;
20296;SDS011;10307;40.100;18.336;2023-02-01T03:46:51;5.20;;;2.05;;
20296;SDS011;10307;40.100;18.336;2023-02-01T03:49:29;5.65;;;2.17;;
20296;SDS011;10307;40.100;18.336;2023-02-01T03:52:01;3.92;;;1.80;;
20296;SDS011;10307;40.100;18.336;2023-02-01T03:54:29;6.13;;;2.17;;
20296;SDS011;10307;40.100;18.336;2023-02-01T03:56:59;5.13;;;2.33;;
20296;SDS011;10307;40.100;18.336;2023-02-01T03:59:27;3.72;;;1.90;;
20296;SDS011;10307;40.100;18.336;2023-02-01T04:01:53;6.65;;;2.17;;
20296;SDS011;10307;40.100;18.336;2023-02-01T04:04:20;6.13;;;1.95;;
20296;SDS011;10307;40.100;18.336;2023-02-01T04:06:49;7.53;;;2.13;;
20296;SDS011;10307;40.100;18.336;2023-02-01T04:09:16;7.47;;;3.08;;
20296;SDS011;10307;40.100;18.336;2023-02-01T04:11:43;9.63;;;3.78;;
20296;SDS011;10307;40.100;18.336;2023-02-01T04:14:09;10.80;;;4.10;;
20296;SDS011;10307;40.100;18.336;2023-02-01T04:16:36;17.65;;;7.60;;
20296;SDS011;10307;40.100;18.336;2023-02-01T04:19:02;16.20;;;8.43;;
20296;SDS011;10307;40.100;18.336;2023-02-01T04:21:28;16.25;;;7.50;;
20296;SDS011;10307;40.100;18.336;2023-02-01T04:23:55;13.30;;;5.00;;
20296;SDS011;10307;40.100;18.336;2023-02-01T04:26:21;2.88;;;1.65;;
20296;SDS011;10307;40.100;18.336;2023-02-01T04:28:47;5.05;;;1.63;;
20296;SDS011;10307;40.100;18.336;2023-02-01T04:31:17;2.03;;;1.05;;
20296;SDS011;10307;40.100;18.336;2023-02-01T04:33:51;4.28;;;1.05;;
20296;SDS011;10307;40.100;18.336;2023-02-01T04:36:18;4.35;;;1.20;;
20296;SDS011;10307;40.100;18.336;2023-02-01T04:38:51;1.42;;;0.60;;
20296;SDS011;10307;40.100;18.336;2023-02-01T04:41:18;4.75;;;1.65;;
20296;SDS011;10307;40.100;18.336;2023-02-01T04:43:48;9.45;;;1.63;;
20296;SDS011;10307;40.100;18.336;2023-02-01T04:46:16;3.83;;;1.67;;
20296;SDS011;10307;40.100;18.336;2023-02-01T04:48:42;3.95;;;1.55;;
20296;SDS011;10307;40.100;18.336;2023-02-01T04:51:09;7.18;;;1.00;;
20296;SDS011;10307;40.100;18.336;2023-02-01T04:53:36;3.63;;;1.58;;
20296;SDS011;10307;40.100;18.336;2023-02-01T04:56:02;3.72;;;1.10;;
20296;SDS011;10307;40.100;18.336;2023-02-01T04:58:29;2.83;;;0.90;;
20296;SDS011;10307;40.100;18.336;2023-02-01T05:00:55;4.05;;;0.80;;
20296;SDS011;10307;40.100;18.336;2023-02-01T05:03:21;3.50;;;1.63;;
20296;SDS011;10307;40.100;18.336;2023-02-01T05:05:48;2.63;;;0.93;;
20296;SDS011;10307;40.100;18.336;2023-02-01T05:08:14;3.50;;;1.02;;
20296;SDS011;10307;40.100;18.336;2023-02-01T05:10:41;1.23;;;0.80;;
20296;SDS011;10307;40.100;18.336;2023-02-01T05:13:08;2.58;;;0.90;;
20296;SDS011;10307;40.100;18.336;2023-02-01T05:15:54;3.60;;;1.10;;
20296;SDS011;10307;40.100;18.336;2023-02-01T05:18:20;3.40;;;1.13;;
20296;SDS011;10307;40.100;18.336;2023-02-01T05:20:46;2.83;;;1.20;;
20296;SDS011;10307;40.100;18.336;2023-02-01T05:23:13;2.58;;;1.27;;
20296;SDS011;10307;40.100;18.336;2023-02-01T05:25:39;6.72;;;1.95;;
20296;SDS011;10307;40.100;18.336;2023-02-01T05:28:05;5.90;;;2.03;;
20296;SDS011;10307;40.100;18.336;2023-02-01T05:30:32;2.92;;;1.48;;
20296;SDS011;10307;40.100;18.336;2023-02-01T05:33:00;4.53;;;1.63;;
20296;SDS011;10307;40.100;18.336;2023-02-01T05:35:27;4.22;;;1.67;;
20296;SDS011;10307;40.100;18.336;2023-02-01T05:37:53;4.15;;;1.30;;
20296;SDS011;10307;40.100;18.336;2023-02-01T05:40:19;6.00;;;2.25;;
20296;SDS011;10307;40.100;18.336;2023-02-01T05:42:46;3.63;;;1.90;;
20296;SDS011;10307;40.100;18.336;2023-02-01T05:45:12;3.78;;;1.83;;
20296;SDS011;10307;40.100;18.336;2023-02-01T05:47:38;5.82;;;1.67;;
20296;SDS011;10307;40.100;18.336;2023-02-01T05:50:06;6.25;;;2.00;;
20296;SDS011;10307;40.100;18.336;2023-02-01T05:52:32;2.97;;;1.35;;
20296;SDS011;10307;40.100;18.336;2023-02-01T05:54:59;5.38;;;1.38;;
20296;SDS011;10307;40.100;18.336;2023-02-01T05:57:25;2.08;;;1.20;;
20296;SDS011;10307;40.100;18.336;2023-02-01T05:59:51;3.80;;;1.48;;
20296;SDS011;10307;40.100;18.336;2023-02-01T06:02:18;4.43;;;1.40;;
20296;SDS011;10307;40.100;18.336;2023-02-01T06:04:44;5.63;;;1.48;;
20296;SDS011;10307;40.100;18.336;2023-02-01T06:07:10;6.90;;;2.10;;
20296;SDS011;10307;40.100;18.336;2023-02-01T06:09:37;4.15;;;1.83;;
20296;SDS011;10307;40.100;18.336;2023-02-01T06:12:03;9.77;;;2.47;;
20296;SDS011;10307;40.100;18.336;2023-02-01T06:14:29;13.90;;;3.85;;
20296;SDS011;10307;40.100;18.336;2023-02-01T06:16:56;8.32;;;2.50;;
20296;SDS011;10307;40.100;18.336;2023-02-01T06:19:22;17.02;;;5.45;;
20296;SDS011;10307;40.100;18.336;2023-02-01T06:21:49;12.27;;;3.90;;
20296;SDS011;10307;40.100;18.336;2023-02-01T06:24:15;6.70;;;2.67;;
20296;SDS011;10307;40.100;18.336;2023-02-01T06:26:41;7.65;;;2.40;;
20296;SDS011;10307;40.100;18.336;2023-02-01T06:29:11;5.50;;;2.33;;
20296;SDS011;10307;40.100;18.336;2023-02-01T06:31:37;5.88;;;2.35;;
20296;SDS011;10307;40.100;18.336;2023-02-01T06:34:04;15.18;;;6.40;;
20296;SDS011;10307;40.100;18.336;2023-02-01T06:36:30;5.95;;;2.63;;
20296;SDS011;10307;40.100;18.336;2023-02-01T06:38:57;11.68;;;3.15;;
20296;SDS011;10307;40.100;18.336;2023-02-01T06:41:25;10.27;;;3.00;;
20296;SDS011;10307;40.100;18.336;2023-02-01T06:43:51;12.48;;;3.83;;
20296;SDS011;10307;40.100;18.336;2023-02-01T06:46:17;37.75;;;14.45;;
20296;SDS011;10307;40.100;18.336;2023-02-01T06:48:43;19.92;;;6.75;;
20296;SDS011;10307;40.100;18.336;2023-02-01T06:51:24;13.93;;;5.03;;
20296;SDS011;10307;40.100;18.336;2023-02-01T06:53:51;14.60;;;6.65;;
20296;SDS011;10307;40.100;18.336;2023-02-01T06:56:18;16.75;;;6.78;;
20296;SDS011;10307;40.100;18.336;2023-02-01T06:58:44;10.75;;;5.05;;
20296;SDS011;10307;40.100;18.336;2023-02-01T07:01:11;21.55;;;10.40;;
20296;SDS011;10307;40.100;18.336;2023-02-01T07:03:38;19.35;;;10.30;;
20296;SDS011;10307;40.100;18.336;2023-02-01T07:06:05;11.25;;;6.43;;
20296;SDS011;10307;40.100;18.336;2023-02-01T07:08:33;10.07;;;4.68;;
20296;SDS011;10307;40.100;18.336;2023-02-01T07:11:09;11.30;;;5.63;;
20296;SDS011;10307;40.100;18.336;2023-02-01T07:13:37;17.63;;;4.40;;
20296;SDS011;10307;40.100;18.336;2023-02-01T07:16:04;8.00;;;4.20;;
20296;SDS011;10307;40.100;18.336;2023-02-01T07:18:32;9.70;;;3.47;;
20296;SDS011;10307;40.100;18.336;2023-02-01T07:20:59;10.38;;;4.28;;
20296;SDS011;10307;40.100;18.336;2023-02-01T07:23:26;6.60;;;2.67;;
20296;SDS011;10307;40.100;18.336;2023-02-01T07:25:53;11.25;;;3.78;;
20296;SDS011;10307;40.100;18.336;2023-02-01T07:28:21;8.45;;;4.63;;
20296;SDS011;10307;40.100;18.336;2023-02-01T07:30:47;12.85;;;3.92;;
20296;SDS011;10307;40.100;18.336;2023-02-01T07:33:25;9.55;;;3.63;;
20296;SDS011;10307;40.100;18.336;2023-02-01T07:35:52;14.05;;;5.28;;
20296;SDS011;10307;40.100;18.336;2023-02-01T07:38:18;12.40;;;5.72;;
20296;SDS011;10307;40.100;18.336;2023-02-01T07:40:47;14.18;;;4.57;;
20296;SDS011;10307;40.100;18.336;2023-02-01T07:43:13;10.32;;;4.25;;
20296;SDS011;10307;40.100;18.336;2023-02-01T07:45:39;12.48;;;5.47;;
20296;SDS011;10307;40.100;18.336;2023-02-01T07:48:05;10.20;;;4.35;;
20296;SDS011;10307;40.100;18.336;2023-02-01T07:50:32;9.20;;;4.68;;
20296;SDS011;10307;40.100;18.336;2023-02-01T07:52:59;10.00;;;3.58;;
20296;SDS011;10307;40.100;18.336;2023-02-01T07:55:26;5.20;;;2.67;;
20296;SDS011;10307;40.100;18.336;2023-02-01T07:57:52;11.82;;;3.72;;
20296;SDS011;10307;40.100;18.336;2023-02-01T08:00:23;14.30;;;3.22;;
20296;SDS011;10307;40.100;18.336;2023-02-01T08:03:08;9.13;;;3.05;;
20296;SDS011;10307;40.100;18.336;2023-02-01T08:05:34;11.30;;;3.90;;
20296;SDS011;10307;40.100;18.336;2023-02-01T08:08:02;6.53;;;3.20;;
20296;SDS011;10307;40.100;18.336;2023-02-01T08:10:29;11.48;;;2.97;;
20296;SDS011;10307;40.100;18.336;2023-02-01T08:12:58;8.43;;;2.97;;
20296;SDS011;10307;40.100;18.336;2023-02-01T08:15:26;7.70;;;3.72;;
20296;SDS011;10307;40.100;18.336;2023-02-01T08:17:55;16.77;;;5.30;;
20296;SDS011;10307;40.100;18.336;2023-02-01T08:20:22;16.40;;;4.65;;
20296;SDS011;10307;40.100;18.336;2023-02-01T08:22:49;10.38;;;3.42;;
20296;SDS011;10307;40.100;18.336;2023-02-01T08:25:16;9.93;;;3.85;;
20296;SDS011;10307;40.100;18.336;2023-02-01T08:27:43;13.48;;;6.00;;
20296;SDS011;10307;40.100;18.336;2023-02-01T08:30:10;11.45;;;5.05;;
20296;SDS011;10307;40.100;18.336;2023-02-01T08:32:37;12.32;;;4.70;;
20296;SDS011;10307;40.100;18.336;2023-02-01T08:35:03;11.68;;;4.35;;
20296;SDS011;10307;40.100;18.336;2023-02-01T08:37:30;4.70;;;1.73;;
20296;SDS011;10307;40.100;18.336;2023-02-01T08:39:56;2.88;;;1.33;;
20296;SDS011;10307;40.100;18.336;2023-02-01T08:42:22;3.88;;;1.40;;
20296;SDS011;10307;40.100;18.336;2023-02-01T08:45:07;3.42;;;1.60;;
20296;SDS011;10307;40.100;18.336;2023-02-01T08:47:34;7.88;;;2.13;;
20296;SDS011;10307;40.100;18.336;2023-02-01T08:50:01;4.60;;;1.60;;
20296;SDS011;10307;40.100;18.336;2023-02-01T08:52:28;6.55;;;1.83;;
20296;SDS011;10307;40.100;18.336;2023-02-01T08:54:55;2.92;;;1.38;;
20296;SDS011;10307;40.100;18.336;2023-02-01T08:57:21;4.82;;;1.60;;
20296;SDS011;10307;40.100;18.336;2023-02-01T08:59:47;5.25;;;1.80;;
20296;SDS011;10307;40.100;18.336;2023-02-01T09:02:14;4.68;;;1.65;;
20296;SDS011;10307;40.100;18.336;2023-02-01T09:04:42;6.70;;;2.00;;
20296;SDS011;10307;40.100;18.336;2023-02-01T09:07:08;6.35;;;2.35;;
20296;SDS011;10307;40.100;18.336;2023-02-01T09:09:36;4.60;;;1.73;;
20296;SDS011;10307;40.100;18.336;2023-02-01T09:12:03;5.85;;;1.70;;
20296;SDS011;10307;40.100;18.336;2023-02-01T09:14:29;6.65;;;1.92;;
20296;SDS011;10307;40.100;18.336;2023-02-01T09:16:56;6.32;;;2.25;;
20296;SDS011;10307;40.100;18.336;2023-02-01T09:19:22;4.75;;;1.95;;
20296;SDS011;10307;40.100;18.336;2023-02-01T09:21:48;4.82;;;1.80;;
20296;SDS011;10307;40.100;18.336;2023-02-01T09:24:15;5.15;;;1.83;;
20296;SDS011;10307;40.100;18.336;2023-02-01T09:26:42;8.70;;;1.90;;
20296;SDS011;10307;40.100;18.336;2023-02-01T09:29:08;7.35;;;2.65;;
20296;SDS011;10307;40.100;18.336;2023-02-01T09:31:38;15.65;;;7.18;;
20296;SDS011;10307;40.100;18.336;2023-02-01T09:34:05;4.40;;;2.00;;
20296;SDS011;10307;40.100;18.336;2023-02-01T09:36:32;6.15;;;2.10;;
20296;SDS011;10307;40.100;18.336;2023-02-01T09:38:58;5.15;;;1.88;;
20296;SDS011;10307;40.100;18.336;2023-02-01T09:46:41;4.07;;;1.38;;
20296;SDS011;10307;40.100;18.336;2023-02-01T09:49:27;6.30;;;2.20;;
20296;SDS011;10307;40.100;18.336;2023-02-01T09:52:08;6.78;;;2.08;;
20296;SDS011;10307;40.100;18.336;2023-02-01T09:57:16;5.10;;;1.85;;
20296;SDS011;10307;40.100;18.336;2023-02-01T09:59:52;5.53;;;2.60;;
20296;SDS011;10307;40.100;18.336;2023-02-01T10:02:38;4.93;;;2.13;;
20296;SDS011;10307;40.100;18.336;2023-02-01T10:05:05;4.90;;;1.95;;
20296;SDS011;10307;40.100;18.336;2023-02-01T10:21:27;7.38;;;2.40;;
20296;SDS011;10307;40.100;18.336;2023-02-01T10:29:43;5.63;;;2.22;;
20296;SDS011;10307;40.100;18.336;2023-02-01T10:32:14;7.45;;;3.40;;
20296;SDS011;10307;40.100;18.336;2023-02-01T10:34:43;5.80;;;2.10;;
20296;SDS011;10307;40.100;18.336;2023-02-01T10:37:29;6.47;;;2.13;;
20296;SDS011;10307;40.100;18.336;2023-02-01T10:39:59;6.60;;;3.00;;
20296;SDS011;10307;40.100;18.336;2023-02-01T10:42:31;6.35;;;2.40;;
20296;SDS011;10307;40.100;18.336;2023-02-01T10:44:57;9.63;;;4.63;;
20296;SDS011;10307;40.100;18.336;2023-02-01T10:47:25;9.98;;;3.50;;
20296;SDS011;10307;40.100;18.336;2023-02-01T10:52:26;12.05;;;6.53;;
20296;SDS011;10307;40.100;18.336;2023-02-01T10:54:57;14.18;;;8.07;;
20296;SDS011;10307;40.100;18.336;2023-02-01T10:57:59;9.15;;;4.03;;
20296;SDS011;10307;40.100;18.336;2023-02-01T11:00:28;14.18;;;7.18;;
20296;SDS011;10307;40.100;18.336;2023-02-01T11:03:01;8.50;;;3.65;;
20296;SDS011;10307;40.100;18.336;2023-02-01T11:05:55;4.97;;;2.20;;
20296;SDS011;10307;40.100;18.336;2023-02-01T11:08:21;6.18;;;2.15;;
20296;SDS011;10307;40.100;18.336;2023-02-01T11:10:49;6.78;;;3.10;;
20296;SDS011;10307;40.100;18.336;2023-02-01T11:13:28;16.42;;;9.52;;
20296;SDS011;10307;40.100;18.336;2023-02-01T11:16:02;10.07;;;3.90;;
20296;SDS011;10307;40.100;18.336;2023-02-01T11:18:39;7.97;;;3.10;;
20296;SDS011;10307;40.100;18.336;2023-02-01T11:21:06;6.13;;;3.03;;
20296;SDS011;10307;40.100;18.336;2023-02-01T11:23:35;7.32;;;3.42;;
20296;SDS011;10307;40.100;18.336;2023-02-01T11:26:09;7.57;;;3.05;;
20296;SDS011;10307;40.100;18.336;2023-02-01T11:28:43;11.18;;;5.00;;
20296;SDS011;10307;40.100;18.336;2023-02-01T11:31:34;8.15;;;4.32;;
20296;SDS011;10307;40.100;18.336;2023-02-01T11:34:08;8.07;;;3.65;;
20296;SDS011;10307;40.100;18.336;2023-02-01T11:36:41;5.65;;;2.60;;
20296;SDS011;10307;40.100;18.336;2023-02-01T11:44:38;10.52;;;3.67;;
20296;SDS011;10307;40.100;18.336;2023-02-01T11:47:31;8.05;;;2.88;;
20296;SDS011;10307;40.100;18.336;2023-02-01T11:50:14;7.13;;;2.45;;
20296;SDS011;10307;40.100;18.336;2023-02-01T11:52:50;8.90;;;3.83;;
20296;SDS011;10307;40.100;18.336;2023-02-01T12:04:15;8.23;;;4.07;;
20296;SDS011;10307;40.100;18.336;2023-02-01T12:07:28;7.70;;;3.05;;
20296;SDS011;10307;40.100;18.336;2023-02-01T12:09:53;10.48;;;5.55;;
20296;SDS011;10307;40.100;18.336;2023-02-01T12:15:45;11.10;;;5.75;;
20296;SDS011;10307;40.100;18.336;2023-02-01T12:26:44;6.60;;;3.33;;
20296;SDS011;10307;40.100;18.336;2023-02-01T12:29:24;10.48;;;5.38;;
20296;SDS011;10307;40.100;18.336;2023-02-01T12:32:19;10.60;;;4.97;;
20296;SDS011;10307;40.100;18.336;2023-02-01T12:38:03;6.40;;;2.72;;
20296;SDS011;10307;40.100;18.336;2023-02-01T12:43:45;12.55;;;3.97;;
20296;SDS011;10307;40.100;18.336;2023-02-01T12:46:21;8.60;;;3.88;;
20296;SDS011;10307;40.100;18.336;2023-02-01T12:52:00;12.13;;;6.47;;
20296;SDS011;10307;40.100;18.336;2023-02-01T12:57:13;10.05;;;4.18;;
20296;SDS011;10307;40.100;18.336;2023-02-01T12:59:47;7.85;;;4.10;;
20296;SDS011;10307;40.100;18.336;2023-02-01T13:02:37;17.45;;;7.93;;
20296;SDS011;10307;40.100;18.336;2023-02-01T13:05:12;11.13;;;5.43;;
20296;SDS011;10307;40.100;18.336;2023-02-01T13:07:52;7.72;;;3.40;;
20296;SDS011;10307;40.100;18.336;2023-02-01T13:12:56;8.45;;;4.75;;
20296;SDS011;10307;40.100;18.336;2023-02-01T13:15:49;8.32;;;3.90;;
20296;SDS011;10307;40.100;18.336;2023-02-01T13:18:24;7.65;;;3.67;;
20296;SDS011;10307;40.100;18.336;2023-02-01T13:21:08;7.35;;;4.40;;
20296;SDS011;10307;40.100;18.336;2023-02-01T13:23:39;12.35;;;5.75;;
20296;SDS011;10307;40.100;18.336;2023-02-01T13:26:08;7.75;;;3.20;;
20296;SDS011;10307;40.100;18.336;2023-02-01T13:28:43;4.88;;;2.22;;
20296;SDS011;10307;40.100;18.336;2023-02-01T13:34:15;8.32;;;4.45;;
20296;SDS011;10307;40.100;18.336;2023-02-01T13:39:48;9.70;;;5.07;;
20296;SDS011;10307;40.100;18.336;2023-02-01T13:42:30;11.52;;;6.32;;
20296;SDS011;10307;40.100;18.336;2023-02-01T13:45:02;17.10;;;9.60;;
20296;SDS011;10307;40.100;18.336;2023-02-01T13:47:39;30.30;;;15.02;;
20296;SDS011;10307;40.100;18.336;2023-02-01T13:53:03;8.95;;;6.63;;
20296;SDS011;10307;40.100;18.336;2023-02-01T13:55:40;17.08;;;11.48;;
20296;SDS011;10307;40.100;18.336;2023-02-01T14:00:46;14.43;;;8.43;;
20296;SDS011;10307;40.100;18.336;2023-02-01T14:03:22;8.70;;;5.15;;
20296;SDS011;10307;40.100;18.336;2023-02-01T14:06:17;11.05;;;4.68;;
20296;SDS011;10307;40.100;18.336;2023-02-01T14:09:11;12.93;;;5.80;;
20296;SDS011;10307;40.100;18.336;2023-02-01T14:19:28;8.68;;;4.10;;
20296;SDS011;10307;40.100;18.336;2023-02-01T14:22:00;6.80;;;3.30;;
20296;SDS011;10307;40.100;18.336;2023-02-01T14:24:50;6.25;;;2.63;;
20296;SDS011;10307;40.100;18.336;2023-02-01T14:27:26;8.32;;;4.03;;
20296;SDS011;10307;40.100;18.336;2023-02-01T14:29:59;13.63;;;6.57;;
20296;SDS011;10307;40.100;18.336;2023-02-01T14:32:31;9.35;;;4.63;;
20296;SDS011;10307;40.100;18.336;2023-02-01T14:35:00;7.63;;;3.92;;
20296;SDS011;10307;40.100;18.336;2023-02-01T14:37:35;13.43;;;5.70;;
20296;SDS011;10307;40.100;18.336;2023-02-01T14:45:49;15.13;;;8.23;;
20296;SDS011;10307;40.100;18.336;2023-02-01T15:06:38;12.70;;;5.80;;
20296;SDS011;10307;40.100;18.336;2023-02-01T15:09:15;14.00;;;9.18;;
20296;SDS011;10307;40.100;18.336;2023-02-01T15:11:58;13.93;;;8.25;;
20296;SDS011;10307;40.100;18.336;2023-02-01T15:14:37;15.75;;;7.95;;
20296;SDS011;10307;40.100;18.336;2023-02-01T15:17:22;15.55;;;7.20;;
20296;SDS011;10307;40.100;18.336;2023-02-01T15:20:31;17.77;;;10.02;;
20296;SDS011;10307;40.100;18.336;2023-02-01T15:22:43;20.00;;;8.63;;
20296;SDS011;10307;40.100;18.336;2023-02-01T15:25:22;18.58;;;11.23;;
20296;SDS011;10307;40.100;18.336;2023-02-01T15:27:53;21.90;;;13.15;;
20296;SDS011;10307;40.100;18.336;2023-02-01T15:30:24;30.55;;;17.48;;
20296;SDS011;10307;40.100;18.336;2023-02-01T15:33:06;45.10;;;26.60;;
20296;SDS011;10307;40.100;18.336;2023-02-01T15:35:44;25.83;;;17.58;;
20296;SDS011;10307;40.100;18.336;2023-02-01T15:40:57;33.35;;;20.88;;
20296;SDS011;10307;40.100;18.336;2023-02-01T15:43:28;38.17;;;24.73;;
20296;SDS011;10307;40.100;18.336;2023-02-01T15:45:58;30.58;;;21.05;;
20296;SDS011;10307;40.100;18.336;2023-02-01T15:48:30;56.20;;;32.20;;
20296;SDS011;10307;40.100;18.336;2023-02-01T15:51:14;40.20;;;25.70;;
20296;SDS011;10307;40.100;18.336;2023-02-01T15:53:44;59.45;;;36.45;;
20296;SDS011;10307;40.100;18.336;2023-02-01T15:56:24;33.50;;;22.95;;
20296;SDS011;10307;40.100;18.336;2023-02-01T15:58:59;25.55;;;18.73;;
20296;SDS011;10307;40.100;18.336;2023-02-01T16:01:27;27.77;;;19.83;;
20296;SDS011;10307;40.100;18.336;2023-02-01T16:04:02;22.98;;;16.58;;
20296;SDS011;10307;40.100;18.336;2023-02-01T16:06:48;24.35;;;16.70;;
20296;SDS011;10307;40.100;18.336;2023-02-01T16:09:34;31.45;;;20.65;;
20296;SDS011;10307;40.100;18.336;2023-02-01T16:12:28;26.08;;;18.10;;
20296;SDS011;10307;40.100;18.336;2023-02-01T16:15:01;32.25;;;19.95;;
20296;SDS011;10307;40.100;18.336;2023-02-01T16:17:28;32.13;;;18.52;;
20296;SDS011;10307;40.100;18.336;2023-02-01T16:19:54;39.22;;;25.20;;
20296;SDS011;10307;40.100;18.336;2023-02-01T16:22:22;47.42;;;31.00;;
20296;SDS011;10307;40.100;18.336;2023-02-01T16:24:49;148.50;;;83.68;;
20296;SDS011;10307;40.100;18.336;2023-02-01T16:27:15;80.47;;;49.47;;
20296;SDS011;10307;40.100;18.336;2023-02-01T16:29:41;46.42;;;25.40;;
20296;SDS011;10307;40.100;18.336;2023-02-01T16:32:25;34.53;;;19.67;;
20296;SDS011;10307;40.100;18.336;2023-02-01T16:34:52;39.95;;;22.83;;
20296;SDS011;10307;40.100;18.336;2023-02-01T16:37:20;41.42;;;24.88;;
20296;SDS011;10307;40.100;18.336;2023-02-01T16:39:48;56.72;;;34.33;;
20296;SDS011;10307;40.100;18.336;2023-02-01T16:42:15;49.17;;;32.55;;
20296;SDS011;10307;40.100;18.336;2023-02-01T16:44:42;43.03;;;29.08;;
20296;SDS011;10307;40.100;18.336;2023-02-01T16:47:14;38.70;;;25.83;;
20296;SDS011;10307;40.100;18.336;2023-02-01T16:49:43;43.70;;;28.65;;
20296;SDS011;10307;40.100;18.336;2023-02-01T16:52:20;44.75;;;28.98;;
20296;SDS011;10307;40.100;18.336;2023-02-01T16:54:49;54.58;;;32.65;;
20296;SDS011;10307;40.100;18.336;2023-02-01T16:57:17;63.97;;;37.13;;
20296;SDS011;10307;40.100;18.336;2023-02-01T16:59:53;70.63;;;39.38;;
20296;SDS011;10307;40.100;18.336;2023-02-01T17:02:19;57.22;;;34.38;;
20296;SDS011;10307;40.100;18.336;2023-02-01T17:04:47;59.20;;;34.10;;
20296;SDS011;10307;40.100;18.336;2023-02-01T17:07:14;45.65;;;29.20;;
20296;SDS011;10307;40.100;18.336;2023-02-01T17:09:43;40.92;;;23.92;;
20296;SDS011;10307;40.100;18.336;2023-02-01T17:12:29;41.53;;;24.85;;
20296;SDS011;10307;40.100;18.336;2023-02-01T17:14:57;41.22;;;25.73;;
20296;SDS011;10307;40.100;18.336;2023-02-01T17:17:29;60.63;;;39.17;;
20296;SDS011;10307;40.100;18.336;2023-02-01T17:20:01;60.28;;;35.20;;
20296;SDS011;10307;40.100;18.336;2023-02-01T17:22:29;60.72;;;35.65;;
20296;SDS011;10307;40.100;18.336;2023-02-01T17:24:55;71.88;;;43.15;;
20296;SDS011;10307;40.100;18.336;2023-02-01T17:27:22;66.45;;;40.92;;
20296;SDS011;10307;40.100;18.336;2023-02-01T17:29:48;70.72;;;43.45;;